sensor_id;sensor_type;location;lat;lon;timestamp;P1;durP1;ratioP1;P2;durP2;ratioP2
61642;SDS011;47551;52.506;4.678;2023-11-21T00:00:00;12.13;;;4.40;;
61642;SDS011;47551;52.506;4.678;2023-11-21T00:00:21;10.57;;;4.30;;
61642;SDS011;47551;52.506;4.678;2023-11-21T00:00:41;10.07;;;4.20;;
61642;SDS011;47551;52.506;4.678;2023-11-21T00:01:01;11.83;;;4.07;;
61642;SDS011;47551;52.506;4.678;2023-11-21T00:01:24;10.73;;;4.28;;
61642;SDS011;47551;52.506;4.678;2023-11-21T00:01:44;12.13;;;4.20;;
61642;SDS011;47551;52.506;4.678;2023-11-21T00:02:07;9.48;;;4.13;;
61642;SDS011;47551;52.506;4.678;2023-11-21T00:02:27;11.67;;;4.40;;
61642;SDS011;47551;52.506;4.678;2023-11-21T00:02:48;13.17;;;4.37;;
61642;SDS011;47551;52.506;4.678;2023-11-21T00:03:08;10.80;;;4.20;;
61642;SDS011;47551;52.506;4.678;2023-11-21T00:03:30;10.60;;;4.38;;
61642;SDS011;47551;52.506;4.678;2023-11-21T00:03:50;10.77;;;4.47;;
61642;SDS011;47551;52.506;4.678;2023-11-21T00:04:10;10.87;;;3.90;;
61642;SDS011;47551;52.506;4.678;2023-11-21T00:04:31;9.95;;;4.05;;
61642;SDS011;47551;52.506;4.678;2023-11-21T00:04:51;9.70;;;4.23;;
61642;SDS011;47551;52.506;4.678;2023-11-21T00:05:12;11.57;;;4.30;;
61642;SDS011;47551;52.506;4.678;2023-11-21T00:05:36;11.05;;;4.30;;
61642;SDS011;47551;52.506;4.678;2023-11-21T00:05:56;10.77;;;4.00;;
61642;SDS011;47551;52.506;4.678;2023-11-21T00:06:16;9.67;;;3.60;;
61642;SDS011;47551;52.506;4.678;2023-11-21T00:06:36;11.77;;;3.87;;
61642;SDS011;47551;52.506;4.678;2023-11-21T00:06:56;12.00;;;3.95;;
61642;SDS011;47551;52.506;4.678;2023-11-21T00:07:16;10.43;;;3.90;;
61642;SDS011;47551;52.506;4.678;2023-11-21T00:07:37;10.37;;;3.83;;
61642;SDS011;47551;52.506;4.678;2023-11-21T00:07:57;11.00;;;4.17;;
61642;SDS011;47551;52.506;4.678;2023-11-21T00:08:17;10.40;;;4.13;;
61642;SDS011;47551;52.506;4.678;2023-11-21T00:08:38;8.55;;;3.97;;
61642;SDS011;47551;52.506;4.678;2023-11-21T00:08:58;11.70;;;4.37;;
61642;SDS011;47551;52.506;4.678;2023-11-21T00:09:22;12.85;;;4.50;;
61642;SDS011;47551;52.506;4.678;2023-11-21T00:09:42;12.05;;;4.00;;
61642;SDS011;47551;52.506;4.678;2023-11-21T00:10:03;10.87;;;4.23;;
61642;SDS011;47551;52.506;4.678;2023-11-21T00:10:25;11.52;;;4.35;;
61642;SDS011;47551;52.506;4.678;2023-11-21T00:10:45;9.57;;;3.88;;
61642;SDS011;47551;52.506;4.678;2023-11-21T00:11:05;8.50;;;3.90;;
61642;SDS011;47551;52.506;4.678;2023-11-21T00:11:25;11.03;;;4.37;;
61642;SDS011;47551;52.506;4.678;2023-11-21T00:11:46;12.25;;;4.38;;
61642;SDS011;47551;52.506;4.678;2023-11-21T00:12:06;10.47;;;4.00;;
61642;SDS011;47551;52.506;4.678;2023-11-21T00:12:47;13.45;;;4.45;;
61642;SDS011;47551;52.506;4.678;2023-11-21T00:13:08;10.73;;;4.32;;
61642;SDS011;47551;52.506;4.678;2023-11-21T00:13:28;13.63;;;4.50;;
61642;SDS011;47551;52.506;4.678;2023-11-21T00:13:48;13.20;;;4.00;;
61642;SDS011;47551;52.506;4.678;2023-11-21T00:14:08;11.13;;;4.00;;
61642;SDS011;47551;52.506;4.678;2023-11-21T00:14:29;10.03;;;3.90;;
61642;SDS011;47551;52.506;4.678;2023-11-21T00:14:49;11.57;;;4.20;;
61642;SDS011;47551;52.506;4.678;2023-11-21T00:15:12;10.80;;;4.43;;
61642;SDS011;47551;52.506;4.678;2023-11-21T00:15:32;10.55;;;4.35;;
61642;SDS011;47551;52.506;4.678;2023-11-21T00:15:55;10.73;;;3.90;;
61642;SDS011;47551;52.506;4.678;2023-11-21T00:16:15;9.73;;;4.22;;
61642;SDS011;47551;52.506;4.678;2023-11-21T00:16:35;10.90;;;4.40;;
61642;SDS011;47551;52.506;4.678;2023-11-21T00:16:58;11.40;;;4.20;;
61642;SDS011;47551;52.506;4.678;2023-11-21T00:17:21;11.40;;;4.10;;
61642;SDS011;47551;52.506;4.678;2023-11-21T00:17:42;11.23;;;4.20;;
61642;SDS011;47551;52.506;4.678;2023-11-21T00:18:02;11.55;;;4.18;;
61642;SDS011;47551;52.506;4.678;2023-11-21T00:18:22;14.27;;;4.57;;
61642;SDS011;47551;52.506;4.678;2023-11-21T00:18:42;13.27;;;4.23;;
61642;SDS011;47551;52.506;4.678;2023-11-21T00:19:03;11.65;;;4.07;;
61642;SDS011;47551;52.506;4.678;2023-11-21T00:19:23;12.60;;;4.23;;
61642;SDS011;47551;52.506;4.678;2023-11-21T00:19:44;12.68;;;4.40;;
61642;SDS011;47551;52.506;4.678;2023-11-21T00:20:05;11.47;;;4.30;;
61642;SDS011;47551;52.506;4.678;2023-11-21T00:20:27;12.43;;;4.25;;
61642;SDS011;47551;52.506;4.678;2023-11-21T00:20:47;11.07;;;4.30;;
61642;SDS011;47551;52.506;4.678;2023-11-21T00:21:07;9.93;;;4.03;;
61642;SDS011;47551;52.506;4.678;2023-11-21T00:21:27;10.90;;;4.20;;
61642;SDS011;47551;52.506;4.678;2023-11-21T00:21:47;11.93;;;4.50;;
61642;SDS011;47551;52.506;4.678;2023-11-21T00:22:08;11.47;;;4.13;;
61642;SDS011;47551;52.506;4.678;2023-11-21T00:22:28;12.82;;;4.30;;
61642;SDS011;47551;52.506;4.678;2023-11-21T00:22:49;11.03;;;4.00;;
61642;SDS011;47551;52.506;4.678;2023-11-21T00:23:09;9.67;;;3.93;;
61642;SDS011;47551;52.506;4.678;2023-11-21T00:23:29;10.85;;;4.20;;
61642;SDS011;47551;52.506;4.678;2023-11-21T00:23:49;9.70;;;4.03;;
61642;SDS011;47551;52.506;4.678;2023-11-21T00:24:10;8.87;;;4.30;;
61642;SDS011;47551;52.506;4.678;2023-11-21T00:24:30;11.90;;;4.03;;
61642;SDS011;47551;52.506;4.678;2023-11-21T00:24:51;12.07;;;4.28;;
61642;SDS011;47551;52.506;4.678;2023-11-21T00:25:12;10.70;;;3.90;;
61642;SDS011;47551;52.506;4.678;2023-11-21T00:25:34;11.55;;;4.43;;
61642;SDS011;47551;52.506;4.678;2023-11-21T00:25:55;10.85;;;4.05;;
61642;SDS011;47551;52.506;4.678;2023-11-21T00:26:15;11.93;;;4.10;;
61642;SDS011;47551;52.506;4.678;2023-11-21T00:26:35;13.73;;;4.37;;
61642;SDS011;47551;52.506;4.678;2023-11-21T00:26:57;12.00;;;4.28;;
61642;SDS011;47551;52.506;4.678;2023-11-21T00:27:18;12.05;;;4.28;;
61642;SDS011;47551;52.506;4.678;2023-11-21T00:27:38;11.70;;;4.20;;
61642;SDS011;47551;52.506;4.678;2023-11-21T00:27:58;10.43;;;4.00;;
61642;SDS011;47551;52.506;4.678;2023-11-21T00:28:18;13.25;;;4.00;;
61642;SDS011;47551;52.506;4.678;2023-11-21T00:28:38;12.07;;;3.90;;
61642;SDS011;47551;52.506;4.678;2023-11-21T00:28:59;12.57;;;3.80;;
61642;SDS011;47551;52.506;4.678;2023-11-21T00:29:19;10.48;;;3.90;;
61642;SDS011;47551;52.506;4.678;2023-11-21T00:29:40;11.10;;;3.90;;
61642;SDS011;47551;52.506;4.678;2023-11-21T00:30:00;9.75;;;3.50;;
61642;SDS011;47551;52.506;4.678;2023-11-21T00:30:23;10.63;;;3.70;;
61642;SDS011;47551;52.506;4.678;2023-11-21T00:30:45;9.98;;;3.83;;
61642;SDS011;47551;52.506;4.678;2023-11-21T00:31:05;9.65;;;3.72;;
61642;SDS011;47551;52.506;4.678;2023-11-21T00:31:25;10.37;;;3.67;;
61642;SDS011;47551;52.506;4.678;2023-11-21T00:31:45;9.90;;;3.40;;
61642;SDS011;47551;52.506;4.678;2023-11-21T00:32:05;11.00;;;3.70;;
61642;SDS011;47551;52.506;4.678;2023-11-21T00:32:26;9.33;;;3.60;;
61642;SDS011;47551;52.506;4.678;2023-11-21T00:32:46;9.15;;;3.30;;
61642;SDS011;47551;52.506;4.678;2023-11-21T00:33:06;9.60;;;3.40;;
61642;SDS011;47551;52.506;4.678;2023-11-21T00:33:27;8.50;;;3.40;;
61642;SDS011;47551;52.506;4.678;2023-11-21T00:33:47;9.50;;;3.53;;
61642;SDS011;47551;52.506;4.678;2023-11-21T00:34:07;8.90;;;3.50;;
61642;SDS011;47551;52.506;4.678;2023-11-21T00:34:27;7.77;;;3.20;;
61642;SDS011;47551;52.506;4.678;2023-11-21T00:34:48;9.43;;;3.35;;
61642;SDS011;47551;52.506;4.678;2023-11-21T00:35:08;9.57;;;3.30;;
61642;SDS011;47551;52.506;4.678;2023-11-21T00:35:28;9.33;;;3.37;;
61642;SDS011;47551;52.506;4.678;2023-11-21T00:35:48;9.75;;;3.50;;
61642;SDS011;47551;52.506;4.678;2023-11-21T00:36:08;8.27;;;3.13;;
61642;SDS011;47551;52.506;4.678;2023-11-21T00:36:38;7.83;;;3.20;;
61642;SDS011;47551;52.506;4.678;2023-11-21T00:36:59;8.65;;;3.65;;
61642;SDS011;47551;52.506;4.678;2023-11-21T00:37:19;8.80;;;3.63;;
61642;SDS011;47551;52.506;4.678;2023-11-21T00:37:39;10.70;;;3.47;;
61642;SDS011;47551;52.506;4.678;2023-11-21T00:37:59;11.32;;;3.60;;
61642;SDS011;47551;52.506;4.678;2023-11-21T00:38:19;9.27;;;3.37;;
61642;SDS011;47551;52.506;4.678;2023-11-21T00:38:42;9.93;;;3.27;;
61642;SDS011;47551;52.506;4.678;2023-11-21T00:39:03;8.60;;;3.10;;
61642;SDS011;47551;52.506;4.678;2023-11-21T00:39:23;9.45;;;3.50;;
61642;SDS011;47551;52.506;4.678;2023-11-21T00:39:44;10.77;;;3.60;;
61642;SDS011;47551;52.506;4.678;2023-11-21T00:40:04;9.63;;;3.78;;
61642;SDS011;47551;52.506;4.678;2023-11-21T00:40:25;12.07;;;3.60;;
61642;SDS011;47551;52.506;4.678;2023-11-21T00:40:45;11.67;;;3.53;;
61642;SDS011;47551;52.506;4.678;2023-11-21T00:41:06;9.83;;;3.30;;
61642;SDS011;47551;52.506;4.678;2023-11-21T00:41:26;10.73;;;3.57;;
61642;SDS011;47551;52.506;4.678;2023-11-21T00:41:50;10.25;;;3.67;;
61642;SDS011;47551;52.506;4.678;2023-11-21T00:42:11;9.93;;;3.30;;
61642;SDS011;47551;52.506;4.678;2023-11-21T00:42:31;9.70;;;3.30;;
61642;SDS011;47551;52.506;4.678;2023-11-21T00:42:53;9.57;;;3.88;;
61642;SDS011;47551;52.506;4.678;2023-11-21T00:43:14;7.63;;;3.07;;
61642;SDS011;47551;52.506;4.678;2023-11-21T00:43:35;8.98;;;2.97;;
61642;SDS011;47551;52.506;4.678;2023-11-21T00:43:55;9.43;;;3.47;;
61642;SDS011;47551;52.506;4.678;2023-11-21T00:44:19;8.35;;;3.20;;
61642;SDS011;47551;52.506;4.678;2023-11-21T00:44:39;9.88;;;3.75;;
61642;SDS011;47551;52.506;4.678;2023-11-21T00:44:59;8.80;;;3.93;;
61642;SDS011;47551;52.506;4.678;2023-11-21T00:45:20;8.23;;;3.50;;
61642;SDS011;47551;52.506;4.678;2023-11-21T00:45:40;8.73;;;3.30;;
61642;SDS011;47551;52.506;4.678;2023-11-21T00:46:03;9.30;;;3.40;;
61642;SDS011;47551;52.506;4.678;2023-11-21T00:46:23;9.40;;;3.75;;
61642;SDS011;47551;52.506;4.678;2023-11-21T00:46:44;9.40;;;3.70;;
61642;SDS011;47551;52.506;4.678;2023-11-21T00:47:04;8.80;;;3.40;;
61642;SDS011;47551;52.506;4.678;2023-11-21T00:47:24;9.03;;;3.60;;
61642;SDS011;47551;52.506;4.678;2023-11-21T00:47:44;9.50;;;3.30;;
61642;SDS011;47551;52.506;4.678;2023-11-21T00:48:04;9.60;;;3.33;;
61642;SDS011;47551;52.506;4.678;2023-11-21T00:48:25;8.57;;;3.70;;
61642;SDS011;47551;52.506;4.678;2023-11-21T00:48:45;10.17;;;3.43;;
61642;SDS011;47551;52.506;4.678;2023-11-21T00:49:05;8.83;;;3.30;;
61642;SDS011;47551;52.506;4.678;2023-11-21T00:49:25;9.63;;;3.37;;
61642;SDS011;47551;52.506;4.678;2023-11-21T00:49:48;8.73;;;3.40;;
61642;SDS011;47551;52.506;4.678;2023-11-21T00:50:09;8.90;;;3.55;;
61642;SDS011;47551;52.506;4.678;2023-11-21T00:50:29;7.83;;;3.60;;
61642;SDS011;47551;52.506;4.678;2023-11-21T00:50:49;7.93;;;3.38;;
61642;SDS011;47551;52.506;4.678;2023-11-21T00:51:10;7.87;;;3.40;;
61642;SDS011;47551;52.506;4.678;2023-11-21T00:51:30;10.70;;;3.80;;
61642;SDS011;47551;52.506;4.678;2023-11-21T00:51:50;10.52;;;3.55;;
61642;SDS011;47551;52.506;4.678;2023-11-21T00:52:11;10.07;;;3.40;;
61642;SDS011;47551;52.506;4.678;2023-11-21T00:52:31;8.97;;;3.40;;
61642;SDS011;47551;52.506;4.678;2023-11-21T00:52:51;8.40;;;3.60;;
61642;SDS011;47551;52.506;4.678;2023-11-21T00:53:14;8.57;;;3.50;;
61642;SDS011;47551;52.506;4.678;2023-11-21T00:53:34;7.77;;;3.23;;
61642;SDS011;47551;52.506;4.678;2023-11-21T00:53:54;7.83;;;3.30;;
61642;SDS011;47551;52.506;4.678;2023-11-21T00:54:14;8.90;;;3.47;;
61642;SDS011;47551;52.506;4.678;2023-11-21T00:54:37;9.63;;;3.75;;
61642;SDS011;47551;52.506;4.678;2023-11-21T00:54:57;10.13;;;3.90;;
61642;SDS011;47551;52.506;4.678;2023-11-21T00:55:19;8.82;;;3.90;;
61642;SDS011;47551;52.506;4.678;2023-11-21T00:55:39;9.50;;;3.20;;
61642;SDS011;47551;52.506;4.678;2023-11-21T00:56:02;9.07;;;3.40;;
61642;SDS011;47551;52.506;4.678;2023-11-21T00:56:22;8.53;;;3.40;;
61642;SDS011;47551;52.506;4.678;2023-11-21T00:56:43;10.50;;;3.58;;
61642;SDS011;47551;52.506;4.678;2023-11-21T00:57:03;8.37;;;3.30;;
61642;SDS011;47551;52.506;4.678;2023-11-21T00:57:23;7.85;;;3.22;;
61642;SDS011;47551;52.506;4.678;2023-11-21T00:57:44;7.43;;;3.30;;
61642;SDS011;47551;52.506;4.678;2023-11-21T00:58:04;8.43;;;3.57;;
61642;SDS011;47551;52.506;4.678;2023-11-21T00:58:24;7.60;;;3.45;;
61642;SDS011;47551;52.506;4.678;2023-11-21T00:58:44;7.80;;;3.60;;
61642;SDS011;47551;52.506;4.678;2023-11-21T00:59:09;7.25;;;3.80;;
61642;SDS011;47551;52.506;4.678;2023-11-21T00:59:30;8.73;;;3.60;;
61642;SDS011;47551;52.506;4.678;2023-11-21T00:59:50;7.80;;;3.57;;
61642;SDS011;47551;52.506;4.678;2023-11-21T01:00:11;8.10;;;3.60;;
61642;SDS011;47551;52.506;4.678;2023-11-21T01:00:36;8.70;;;3.42;;
61642;SDS011;47551;52.506;4.678;2023-11-21T01:00:59;9.48;;;3.78;;
61642;SDS011;47551;52.506;4.678;2023-11-21T01:01:20;9.57;;;3.93;;
61642;SDS011;47551;52.506;4.678;2023-11-21T01:01:40;9.13;;;3.50;;
61642;SDS011;47551;52.506;4.678;2023-11-21T01:02:00;8.03;;;3.70;;
61642;SDS011;47551;52.506;4.678;2023-11-21T01:02:24;8.73;;;3.97;;
61642;SDS011;47551;52.506;4.678;2023-11-21T01:02:45;8.37;;;3.60;;
61642;SDS011;47551;52.506;4.678;2023-11-21T01:03:08;8.77;;;3.42;;
61642;SDS011;47551;52.506;4.678;2023-11-21T01:03:29;9.65;;;3.60;;
61642;SDS011;47551;52.506;4.678;2023-11-21T01:03:49;9.47;;;3.80;;
61642;SDS011;47551;52.506;4.678;2023-11-21T01:04:09;9.30;;;4.00;;
61642;SDS011;47551;52.506;4.678;2023-11-21T01:04:29;7.85;;;3.45;;
61642;SDS011;47551;52.506;4.678;2023-11-21T01:04:49;8.50;;;3.50;;
61642;SDS011;47551;52.506;4.678;2023-11-21T01:05:10;8.60;;;3.40;;
61642;SDS011;47551;52.506;4.678;2023-11-21T01:05:33;8.50;;;3.45;;
61642;SDS011;47551;52.506;4.678;2023-11-21T01:05:54;9.27;;;3.75;;
61642;SDS011;47551;52.506;4.678;2023-11-21T01:06:14;8.07;;;3.30;;
61642;SDS011;47551;52.506;4.678;2023-11-21T01:06:35;8.87;;;3.37;;
61642;SDS011;47551;52.506;4.678;2023-11-21T01:06:55;8.70;;;3.50;;
61642;SDS011;47551;52.506;4.678;2023-11-21T01:07:15;8.17;;;3.37;;
61642;SDS011;47551;52.506;4.678;2023-11-21T01:07:36;8.17;;;3.30;;
61642;SDS011;47551;52.506;4.678;2023-11-21T01:07:56;7.72;;;3.50;;
61642;SDS011;47551;52.506;4.678;2023-11-21T01:08:16;8.03;;;3.60;;
61642;SDS011;47551;52.506;4.678;2023-11-21T01:08:37;7.93;;;3.70;;
61642;SDS011;47551;52.506;4.678;2023-11-21T01:08:57;7.88;;;3.42;;
61642;SDS011;47551;52.506;4.678;2023-11-21T01:09:17;8.27;;;3.57;;
61642;SDS011;47551;52.506;4.678;2023-11-21T01:09:40;6.93;;;3.45;;
61642;SDS011;47551;52.506;4.678;2023-11-21T01:10:00;6.73;;;2.97;;
61642;SDS011;47551;52.506;4.678;2023-11-21T01:10:20;8.10;;;3.40;;
61642;SDS011;47551;52.506;4.678;2023-11-21T01:10:41;8.73;;;3.63;;
61642;SDS011;47551;52.506;4.678;2023-11-21T01:11:01;7.73;;;3.20;;
61642;SDS011;47551;52.506;4.678;2023-11-21T01:11:21;9.18;;;3.50;;
61642;SDS011;47551;52.506;4.678;2023-11-21T01:11:45;7.15;;;3.50;;
61642;SDS011;47551;52.506;4.678;2023-11-21T01:12:06;7.00;;;3.30;;
61642;SDS011;47551;52.506;4.678;2023-11-21T01:12:26;8.13;;;3.25;;
61642;SDS011;47551;52.506;4.678;2023-11-21T01:12:46;7.07;;;3.37;;
61642;SDS011;47551;52.506;4.678;2023-11-21T01:13:08;6.25;;;3.28;;
61642;SDS011;47551;52.506;4.678;2023-11-21T01:13:28;7.43;;;3.50;;
61642;SDS011;47551;52.506;4.678;2023-11-21T01:13:49;7.22;;;3.40;;
61642;SDS011;47551;52.506;4.678;2023-11-21T01:14:13;8.85;;;3.42;;
61642;SDS011;47551;52.506;4.678;2023-11-21T01:14:36;7.40;;;3.30;;
61642;SDS011;47551;52.506;4.678;2023-11-21T01:14:56;7.18;;;3.50;;
61642;SDS011;47551;52.506;4.678;2023-11-21T01:15:20;7.72;;;3.38;;
61642;SDS011;47551;52.506;4.678;2023-11-21T01:15:40;7.57;;;3.20;;
61642;SDS011;47551;52.506;4.678;2023-11-21T01:16:01;7.88;;;3.40;;
61642;SDS011;47551;52.506;4.678;2023-11-21T01:16:21;6.90;;;3.30;;
61642;SDS011;47551;52.506;4.678;2023-11-21T01:16:42;6.93;;;3.20;;
61642;SDS011;47551;52.506;4.678;2023-11-21T01:17:02;7.80;;;3.50;;
61642;SDS011;47551;52.506;4.678;2023-11-21T01:17:24;7.82;;;3.50;;
61642;SDS011;47551;52.506;4.678;2023-11-21T01:17:44;7.57;;;3.40;;
61642;SDS011;47551;52.506;4.678;2023-11-21T01:18:04;7.90;;;3.47;;
61642;SDS011;47551;52.506;4.678;2023-11-21T01:18:25;8.77;;;3.70;;
61642;SDS011;47551;52.506;4.678;2023-11-21T01:18:49;7.10;;;3.20;;
61642;SDS011;47551;52.506;4.678;2023-11-21T01:19:09;8.13;;;3.37;;
61642;SDS011;47551;52.506;4.678;2023-11-21T01:19:29;7.20;;;3.20;;
61642;SDS011;47551;52.506;4.678;2023-11-21T01:19:49;6.17;;;3.40;;
61642;SDS011;47551;52.506;4.678;2023-11-21T01:20:12;8.52;;;3.45;;
61642;SDS011;47551;52.506;4.678;2023-11-21T01:20:33;7.47;;;3.23;;
61642;SDS011;47551;52.506;4.678;2023-11-21T01:20:53;7.03;;;3.10;;
61642;SDS011;47551;52.506;4.678;2023-11-21T01:21:13;7.57;;;3.40;;
61642;SDS011;47551;52.506;4.678;2023-11-21T01:21:33;7.87;;;3.40;;
61642;SDS011;47551;52.506;4.678;2023-11-21T01:21:53;8.70;;;3.20;;
61642;SDS011;47551;52.506;4.678;2023-11-21T01:22:14;8.83;;;3.50;;
61642;SDS011;47551;52.506;4.678;2023-11-21T01:22:35;8.43;;;3.30;;
61642;SDS011;47551;52.506;4.678;2023-11-21T01:22:55;8.07;;;3.90;;
61642;SDS011;47551;52.506;4.678;2023-11-21T01:23:16;6.65;;;3.33;;
61642;SDS011;47551;52.506;4.678;2023-11-21T01:23:36;6.57;;;3.40;;
61642;SDS011;47551;52.506;4.678;2023-11-21T01:23:56;7.70;;;3.20;;
61642;SDS011;47551;52.506;4.678;2023-11-21T01:24:16;10.17;;;3.63;;
61642;SDS011;47551;52.506;4.678;2023-11-21T01:24:36;9.07;;;3.80;;
61642;SDS011;47551;52.506;4.678;2023-11-21T01:24:56;8.40;;;3.83;;
61642;SDS011;47551;52.506;4.678;2023-11-21T01:25:17;7.75;;;3.50;;
61642;SDS011;47551;52.506;4.678;2023-11-21T01:25:38;9.70;;;3.60;;
61642;SDS011;47551;52.506;4.678;2023-11-21T01:25:58;10.03;;;3.53;;
61642;SDS011;47551;52.506;4.678;2023-11-21T01:26:21;8.38;;;3.40;;
61642;SDS011;47551;52.506;4.678;2023-11-21T01:26:41;8.20;;;3.58;;
61642;SDS011;47551;52.506;4.678;2023-11-21T01:27:01;7.73;;;3.57;;
61642;SDS011;47551;52.506;4.678;2023-11-21T01:27:22;7.17;;;3.40;;
61642;SDS011;47551;52.506;4.678;2023-11-21T01:27:42;7.72;;;3.88;;
61642;SDS011;47551;52.506;4.678;2023-11-21T01:28:03;8.40;;;3.77;;
61642;SDS011;47551;52.506;4.678;2023-11-21T01:28:23;8.10;;;3.40;;
61642;SDS011;47551;52.506;4.678;2023-11-21T01:28:43;7.40;;;3.50;;
61642;SDS011;47551;52.506;4.678;2023-11-21T01:29:03;7.73;;;3.50;;
61642;SDS011;47551;52.506;4.678;2023-11-21T01:29:24;9.55;;;3.60;;
61642;SDS011;47551;52.506;4.678;2023-11-21T01:29:44;10.20;;;3.63;;
61642;SDS011;47551;52.506;4.678;2023-11-21T01:30:05;8.20;;;3.30;;
61642;SDS011;47551;52.506;4.678;2023-11-21T01:30:27;8.57;;;3.42;;
61642;SDS011;47551;52.506;4.678;2023-11-21T01:30:47;8.83;;;3.40;;
61642;SDS011;47551;52.506;4.678;2023-11-21T01:31:07;8.47;;;3.40;;
61642;SDS011;47551;52.506;4.678;2023-11-21T01:31:28;7.33;;;3.30;;
61642;SDS011;47551;52.506;4.678;2023-11-21T01:31:49;6.75;;;3.40;;
61642;SDS011;47551;52.506;4.678;2023-11-21T01:32:09;7.50;;;3.40;;
61642;SDS011;47551;52.506;4.678;2023-11-21T01:32:30;9.20;;;3.30;;
61642;SDS011;47551;52.506;4.678;2023-11-21T01:32:50;9.67;;;3.50;;
61642;SDS011;47551;52.506;4.678;2023-11-21T01:33:10;9.47;;;3.60;;
61642;SDS011;47551;52.506;4.678;2023-11-21T01:33:30;9.75;;;3.65;;
61642;SDS011;47551;52.506;4.678;2023-11-21T01:33:50;8.70;;;3.40;;
61642;SDS011;47551;52.506;4.678;2023-11-21T01:34:10;7.50;;;3.17;;
61642;SDS011;47551;52.506;4.678;2023-11-21T01:34:31;6.53;;;3.00;;
61642;SDS011;47551;52.506;4.678;2023-11-21T01:34:51;6.43;;;3.00;;
61642;SDS011;47551;52.506;4.678;2023-11-21T01:35:11;7.43;;;3.33;;
61642;SDS011;47551;52.506;4.678;2023-11-21T01:35:31;7.60;;;3.10;;
61642;SDS011;47551;52.506;4.678;2023-11-21T01:35:52;6.23;;;2.90;;
61642;SDS011;47551;52.506;4.678;2023-11-21T01:36:14;6.35;;;3.10;;
61642;SDS011;47551;52.506;4.678;2023-11-21T01:36:35;7.32;;;3.50;;
61642;SDS011;47551;52.506;4.678;2023-11-21T01:36:55;8.63;;;3.43;;
61642;SDS011;47551;52.506;4.678;2023-11-21T01:37:19;11.10;;;3.38;;
61642;SDS011;47551;52.506;4.678;2023-11-21T01:37:47;8.85;;;3.60;;
61642;SDS011;47551;52.506;4.678;2023-11-21T01:38:08;9.25;;;3.58;;
61642;SDS011;47551;52.506;4.678;2023-11-21T01:38:28;7.47;;;3.60;;
61642;SDS011;47551;52.506;4.678;2023-11-21T01:38:49;9.73;;;3.92;;
61642;SDS011;47551;52.506;4.678;2023-11-21T01:39:09;11.00;;;3.83;;
61642;SDS011;47551;52.506;4.678;2023-11-21T01:39:35;7.70;;;3.17;;
61642;SDS011;47551;52.506;4.678;2023-11-21T01:39:55;7.77;;;3.07;;
61642;SDS011;47551;52.506;4.678;2023-11-21T01:40:15;8.75;;;3.40;;
61642;SDS011;47551;52.506;4.678;2023-11-21T01:40:36;8.00;;;3.30;;
61642;SDS011;47551;52.506;4.678;2023-11-21T01:40:56;8.27;;;3.50;;
61642;SDS011;47551;52.506;4.678;2023-11-21T01:41:16;9.68;;;3.60;;
61642;SDS011;47551;52.506;4.678;2023-11-21T01:41:36;7.97;;;3.50;;
61642;SDS011;47551;52.506;4.678;2023-11-21T01:41:57;6.90;;;3.40;;
61642;SDS011;47551;52.506;4.678;2023-11-21T01:42:18;7.75;;;3.30;;
61642;SDS011;47551;52.506;4.678;2023-11-21T01:42:38;8.77;;;3.20;;
61642;SDS011;47551;52.506;4.678;2023-11-21T01:42:58;7.00;;;3.00;;
61642;SDS011;47551;52.506;4.678;2023-11-21T01:43:19;8.33;;;3.57;;
61642;SDS011;47551;52.506;4.678;2023-11-21T01:43:39;9.00;;;3.65;;
61642;SDS011;47551;52.506;4.678;2023-11-21T01:43:59;9.80;;;3.53;;
61642;SDS011;47551;52.506;4.678;2023-11-21T01:44:19;7.93;;;3.27;;
61642;SDS011;47551;52.506;4.678;2023-11-21T01:44:39;7.33;;;3.50;;
61642;SDS011;47551;52.506;4.678;2023-11-21T01:45:03;8.13;;;3.40;;
61642;SDS011;47551;52.506;4.678;2023-11-21T01:45:24;7.97;;;3.45;;
61642;SDS011;47551;52.506;4.678;2023-11-21T01:45:45;7.50;;;3.40;;
61642;SDS011;47551;52.506;4.678;2023-11-21T01:46:08;7.38;;;3.40;;
61642;SDS011;47551;52.506;4.678;2023-11-21T01:46:29;6.50;;;2.95;;
61642;SDS011;47551;52.506;4.678;2023-11-21T01:47:01;8.18;;;3.50;;
61642;SDS011;47551;52.506;4.678;2023-11-21T01:47:24;8.93;;;3.40;;
61642;SDS011;47551;52.506;4.678;2023-11-21T01:47:45;7.82;;;3.20;;
61642;SDS011;47551;52.506;4.678;2023-11-21T01:48:05;7.53;;;3.53;;
61642;SDS011;47551;52.506;4.678;2023-11-21T01:48:28;8.75;;;3.60;;
61642;SDS011;47551;52.506;4.678;2023-11-21T01:48:49;8.50;;;3.50;;
61642;SDS011;47551;52.506;4.678;2023-11-21T01:49:09;8.93;;;3.15;;
61642;SDS011;47551;52.506;4.678;2023-11-21T01:49:33;8.85;;;3.72;;
61642;SDS011;47551;52.506;4.678;2023-11-21T01:49:53;7.93;;;3.47;;
61642;SDS011;47551;52.506;4.678;2023-11-21T01:50:14;7.23;;;3.20;;
61642;SDS011;47551;52.506;4.678;2023-11-21T01:50:35;9.18;;;3.45;;
61642;SDS011;47551;52.506;4.678;2023-11-21T01:50:56;9.00;;;3.55;;
61642;SDS011;47551;52.506;4.678;2023-11-21T01:51:16;8.00;;;3.43;;
61642;SDS011;47551;52.506;4.678;2023-11-21T01:51:36;8.33;;;3.43;;
61642;SDS011;47551;52.506;4.678;2023-11-21T01:51:56;8.47;;;3.57;;
61642;SDS011;47551;52.506;4.678;2023-11-21T01:52:17;7.83;;;3.30;;
61642;SDS011;47551;52.506;4.678;2023-11-21T01:52:40;7.40;;;3.30;;
61642;SDS011;47551;52.506;4.678;2023-11-21T01:53:01;8.95;;;3.42;;
61642;SDS011;47551;52.506;4.678;2023-11-21T01:53:21;9.00;;;3.33;;
61642;SDS011;47551;52.506;4.678;2023-11-21T01:53:41;7.70;;;3.17;;
61642;SDS011;47551;52.506;4.678;2023-11-21T01:54:02;8.10;;;3.47;;
61642;SDS011;47551;52.506;4.678;2023-11-21T01:54:25;8.23;;;3.42;;
61642;SDS011;47551;52.506;4.678;2023-11-21T01:54:45;7.83;;;3.33;;
61642;SDS011;47551;52.506;4.678;2023-11-21T01:55:06;8.15;;;3.25;;
61642;SDS011;47551;52.506;4.678;2023-11-21T01:55:28;9.05;;;3.30;;
61642;SDS011;47551;52.506;4.678;2023-11-21T01:55:49;9.55;;;3.60;;
61642;SDS011;47551;52.506;4.678;2023-11-21T01:56:09;10.23;;;3.60;;
61642;SDS011;47551;52.506;4.678;2023-11-21T01:56:30;8.15;;;3.30;;
61642;SDS011;47551;52.506;4.678;2023-11-21T01:56:51;7.65;;;3.25;;
61642;SDS011;47551;52.506;4.678;2023-11-21T01:57:12;7.67;;;3.00;;
61642;SDS011;47551;52.506;4.678;2023-11-21T01:57:32;7.55;;;3.08;;
61642;SDS011;47551;52.506;4.678;2023-11-21T01:57:52;7.23;;;3.23;;
61642;SDS011;47551;52.506;4.678;2023-11-21T01:58:15;7.68;;;3.17;;
61642;SDS011;47551;52.506;4.678;2023-11-21T01:58:36;9.02;;;3.50;;
61642;SDS011;47551;52.506;4.678;2023-11-21T01:58:56;9.97;;;3.80;;
61642;SDS011;47551;52.506;4.678;2023-11-21T01:59:18;9.10;;;3.47;;
61642;SDS011;47551;52.506;4.678;2023-11-21T01:59:38;9.25;;;3.67;;
61642;SDS011;47551;52.506;4.678;2023-11-21T02:00:02;8.13;;;3.35;;
61642;SDS011;47551;52.506;4.678;2023-11-21T02:00:35;9.07;;;3.50;;
61642;SDS011;47551;52.506;4.678;2023-11-21T02:00:55;8.37;;;3.40;;
61642;SDS011;47551;52.506;4.678;2023-11-21T02:01:15;9.00;;;3.40;;
61642;SDS011;47551;52.506;4.678;2023-11-21T02:01:38;9.93;;;3.75;;
61642;SDS011;47551;52.506;4.678;2023-11-21T02:01:58;10.05;;;3.75;;
61642;SDS011;47551;52.506;4.678;2023-11-21T02:02:18;8.17;;;3.40;;
61642;SDS011;47551;52.506;4.678;2023-11-21T02:02:39;8.13;;;3.50;;
61642;SDS011;47551;52.506;4.678;2023-11-21T02:02:59;10.23;;;3.57;;
61642;SDS011;47551;52.506;4.678;2023-11-21T02:03:19;8.10;;;3.40;;
61642;SDS011;47551;52.506;4.678;2023-11-21T02:03:39;8.77;;;3.53;;
61642;SDS011;47551;52.506;4.678;2023-11-21T02:03:59;7.57;;;3.27;;
61642;SDS011;47551;52.506;4.678;2023-11-21T02:04:20;7.53;;;3.28;;
61642;SDS011;47551;52.506;4.678;2023-11-21T02:04:41;7.75;;;3.45;;
61642;SDS011;47551;52.506;4.678;2023-11-21T02:05:01;8.80;;;3.20;;
61642;SDS011;47551;52.506;4.678;2023-11-21T02:05:21;10.67;;;3.47;;